createdAt,value
2022-12-28T00:01:06.022Z,78.43
2022-12-28T00:02:09.277Z,78.18
2022-12-28T00:03:12.626Z,77.73
2022-12-28T00:04:16.019Z,78.03
2022-12-28T00:05:19.417Z,78.23
2022-12-28T00:06:24.423Z,77.64
2022-12-28T00:07:27.526Z,77.70
2022-12-28T00:08:31.190Z,77.95
2022-12-28T00:09:34.383Z,78.10
2022-12-28T00:11:07.995Z,77.98
2022-12-28T00:12:00.701Z,78.09
2022-12-28T00:13:04.008Z,78.55
2022-12-28T00:14:07.424Z,78.16
2022-12-28T00:15:10.852Z,77.90
2022-12-28T00:16:24.871Z,78.04
2022-12-28T00:17:28.095Z,78.15
2022-12-28T00:18:34.581Z,77.93
2022-12-28T00:19:37.817Z,78.46
2022-12-28T00:20:41.246Z,78.10
2022-12-28T00:21:45.911Z,78.36
2022-12-28T00:22:49.310Z,78.38
2022-12-28T00:23:57.278Z,78.00
2022-12-28T00:25:01.849Z,78.43
2022-12-28T00:26:09.936Z,78.50
2022-12-28T00:27:13.107Z,77.98
2022-12-28T00:28:16.175Z,77.83
2022-12-28T00:29:20.222Z,78.33
2022-12-28T00:30:23.483Z,78.30
2022-12-28T00:31:27.097Z,78.19
2022-12-28T00:32:33.528Z,77.84
2022-12-28T00:33:36.669Z,77.98
2022-12-28T00:34:40.669Z,77.94
2022-12-28T00:35:44.691Z,78.06
2022-12-28T00:37:09.378Z,78.19
2022-12-28T00:38:15.614Z,78.49
2022-12-28T00:39:20.247Z,77.70
2022-12-28T00:40:24.304Z,77.98
2022-12-28T00:41:27.529Z,78.01
2022-12-28T00:42:30.505Z,78.19
2022-12-28T00:43:33.981Z,78.11
2022-12-28T00:44:37.236Z,77.77
2022-12-28T00:45:40.413Z,77.84
2022-12-28T00:46:43.819Z,78.15
2022-12-28T00:47:47.696Z,77.64
2022-12-28T00:48:50.960Z,77.29
2022-12-28T00:49:54.035Z,77.24
2022-12-28T00:51:09.301Z,77.38
2022-12-28T00:52:12.634Z,77.80
2022-12-28T00:53:16.095Z,77.91
2022-12-28T00:54:20.838Z,77.76
2022-12-28T00:55:24.020Z,77.45
2022-12-28T00:56:27.107Z,77.47
2022-12-28T00:57:31.278Z,77.64
2022-12-28T00:58:34.852Z,77.69
2022-12-28T00:59:38.075Z,77.48
2022-12-28T01:00:41.284Z,77.61
2022-12-28T01:01:44.518Z,77.80
2022-12-28T01:02:48.031Z,77.86
2022-12-28T01:03:51.940Z,77.60
2022-12-28T01:04:54.916Z,77.79
2022-12-28T01:05:58.313Z,77.41
2022-12-28T01:07:01.347Z,77.47
2022-12-28T01:08:07.679Z,77.29
2022-12-28T01:09:10.827Z,77.62
2022-12-28T01:10:14.096Z,77.64
2022-12-28T01:11:20.814Z,77.34
2022-12-28T01:12:23.869Z,77.53
2022-12-28T01:13:27.170Z,77.60
2022-12-28T01:14:30.250Z,77.78
2022-12-28T01:15:33.502Z,77.88
2022-12-28T01:16:37.160Z,77.93
2022-12-28T01:17:40.617Z,77.89
2022-12-28T01:18:45.219Z,77.91
2022-12-28T01:19:53.710Z,77.70
2022-12-28T01:20:57.319Z,77.69
2022-12-28T01:22:00.275Z,78.11
2022-12-28T01:23:03.364Z,78.08
2022-12-28T01:24:10.227Z,77.78
2022-12-28T01:25:13.803Z,77.92
2022-12-28T01:26:16.906Z,77.80
2022-12-28T01:27:21.415Z,78.04
2022-12-28T01:28:24.456Z,77.76
2022-12-28T01:29:27.654Z,77.40
2022-12-28T01:30:31.694Z,78.06
2022-12-28T01:31:35.335Z,77.85
2022-12-28T01:32:38.600Z,77.74
2022-12-28T01:33:42.732Z,78.01
2022-12-28T01:34:45.955Z,77.96
2022-12-28T01:35:48.991Z,77.73
2022-12-28T01:36:52.007Z,77.75
2022-12-28T01:37:57.093Z,77.69
2022-12-28T01:39:03.876Z,78.04
2022-12-28T01:40:10.045Z,77.82
2022-12-28T01:41:18.599Z,77.70
2022-12-28T01:42:21.641Z,77.78
2022-12-28T01:43:39.574Z,78.03
2022-12-28T01:44:45.528Z,78.33
2022-12-28T01:45:52.790Z,78.11
2022-12-28T01:47:02.974Z,77.55
2022-12-28T01:48:16.604Z,78.24
2022-12-28T01:49:28.819Z,78.24
2022-12-28T01:50:32.089Z,77.69
2022-12-28T01:51:50.225Z,77.69
2022-12-28T01:52:57.487Z,77.93
2022-12-28T01:54:04.514Z,77.98
2022-12-28T01:55:35.186Z,77.87
2022-12-28T01:56:39.697Z,78.01
2022-12-28T01:58:05.838Z,77.36
2022-12-28T01:59:10.326Z,78.02
2022-12-28T02:00:15.779Z,77.79
2022-12-28T02:01:21.774Z,77.73
2022-12-28T02:02:25.180Z,77.46
2022-12-28T02:03:32.856Z,77.71
2022-12-28T02:04:36.070Z,77.53
2022-12-28T02:05:42.521Z,77.63
2022-12-28T02:06:46.720Z,77.87
2022-12-28T02:07:57.932Z,77.95
2022-12-28T02:09:10.264Z,78.24
2022-12-28T02:10:42.371Z,78.63
2022-12-28T02:11:38.514Z,78.10
2022-12-28T02:12:43.786Z,77.88
2022-12-28T02:13:50.123Z,77.74
2022-12-28T02:14:54.263Z,77.62
2022-12-28T02:15:57.467Z,77.46
2022-12-28T02:17:00.854Z,77.33
2022-12-28T02:18:04.437Z,77.50
2022-12-28T02:19:09.801Z,77.11
2022-12-28T02:20:14.371Z,77.05
2022-12-28T02:21:39.453Z,77.30
2022-12-28T02:23:21.046Z,78.26
2022-12-28T02:25:12.831Z,78.88
2022-12-28T02:26:26.964Z,78.23
2022-12-28T02:27:54.829Z,77.98
2022-12-28T02:29:23.877Z,78.17
2022-12-28T02:32:49.450Z,78.47
2022-12-28T02:34:02.603Z,78.32
2022-12-28T02:35:08.764Z,77.81
2022-12-28T02:36:19.321Z,77.66
2022-12-28T02:37:27.162Z,77.56
2022-12-28T02:38:36.947Z,77.40
2022-12-28T02:39:47.302Z,77.47
2022-12-28T02:41:00.230Z,77.17
2022-12-28T02:42:05.162Z,76.80
2022-12-28T02:43:09.143Z,76.75
2022-12-28T02:44:33.228Z,76.72
2022-12-28T02:46:00.914Z,77.52
2022-12-28T02:47:23.524Z,77.57
2022-12-28T02:48:45.242Z,76.88
2022-12-28T02:50:06.902Z,77.16
2022-12-28T02:51:56.995Z,77.03
2022-12-28T02:53:30.469Z,77.63
2022-12-28T02:55:29.315Z,78.19
2022-12-28T02:56:55.721Z,77.52
2022-12-28T02:58:18.820Z,76.99
2022-12-28T02:59:55.057Z,76.77
2022-12-28T03:01:10.241Z,76.97
2022-12-28T03:02:25.918Z,77.25
2022-12-28T03:03:48.143Z,77.66
2022-12-28T03:05:19.123Z,76.98
2022-12-28T03:07:03.361Z,77.26
2022-12-28T03:08:20.206Z,78.01
2022-12-28T03:09:36.987Z,77.69
2022-12-28T03:10:50.001Z,77.30
2022-12-28T03:12:04.405Z,76.72
2022-12-28T03:13:34.310Z,77.34
2022-12-28T03:14:49.294Z,77.68
2022-12-28T03:15:53.161Z,76.84
2022-12-28T03:17:19.647Z,75.86
2022-12-28T03:18:42.245Z,75.93
2022-12-28T03:20:15.523Z,76.38
2022-12-28T03:21:39.200Z,76.58
2022-12-28T03:23:04.626Z,76.91
2022-12-28T03:24:28.983Z,76.15
2022-12-28T03:25:56.867Z,76.26
2022-12-28T03:27:28.341Z,76.61
2022-12-28T03:28:55.795Z,76.14
2022-12-28T03:30:24.641Z,76.00
2022-12-28T03:31:29.159Z,76.46
2022-12-28T03:32:35.625Z,76.49
2022-12-28T03:33:46.701Z,76.59
2022-12-28T03:34:50.013Z,76.07
2022-12-28T03:36:02.766Z,76.46
2022-12-28T03:37:29.560Z,76.56
2022-12-28T03:38:48.425Z,76.34
2022-12-28T03:39:53.355Z,76.40
2022-12-28T03:41:10.917Z,76.19
2022-12-28T03:42:37.467Z,76.69
2022-12-28T03:43:51.630Z,76.65
2022-12-28T03:45:06.938Z,76.06
2022-12-28T03:46:14.298Z,76.35
2022-12-28T03:47:21.002Z,75.94
2022-12-28T03:48:25.216Z,75.57
2022-12-28T03:49:29.036Z,75.34
2022-12-28T03:50:38.374Z,75.47
2022-12-28T03:51:45.267Z,75.84
2022-12-28T03:52:49.578Z,75.89
2022-12-28T03:53:52.718Z,76.06
2022-12-28T03:54:57.603Z,75.68
2022-12-28T03:56:12.072Z,75.38
2022-12-28T03:57:17.093Z,75.18
2022-12-28T03:58:22.023Z,75.52
2022-12-28T03:59:26.033Z,75.18
2022-12-28T04:00:29.258Z,75.16
2022-12-28T04:01:32.463Z,74.91
2022-12-28T04:02:35.873Z,75.58
2022-12-28T04:03:39.932Z,75.35
2022-12-28T04:04:42.970Z,74.80
2022-12-28T04:05:46.248Z,74.66
2022-12-28T04:06:49.418Z,74.33
2022-12-28T04:07:52.758Z,74.46
2022-12-28T04:08:55.745Z,74.64
2022-12-28T04:09:59.361Z,75.46
2022-12-28T04:11:02.695Z,75.01
2022-12-28T04:12:06.713Z,74.74
2022-12-28T04:13:39.186Z,76.06
2022-12-28T04:14:44.270Z,75.40
2022-12-28T04:15:59.350Z,74.94
2022-12-28T04:17:02.888Z,75.55
2022-12-28T04:18:06.653Z,75.17
2022-12-28T04:19:10.527Z,75.23
2022-12-28T04:20:13.633Z,75.09
2022-12-28T04:21:16.830Z,74.87
2022-12-28T04:22:20.950Z,74.96
2022-12-28T04:23:24.727Z,75.35
2022-12-28T04:24:36.738Z,75.29
2022-12-28T04:25:41.268Z,75.40
2022-12-28T04:26:45.503Z,75.10
2022-12-28T04:27:49.946Z,75.13
2022-12-28T04:29:12.918Z,76.04
2022-12-28T04:30:44.813Z,75.90
2022-12-28T04:31:48.422Z,76.08
2022-12-28T04:32:55.734Z,75.53
2022-12-28T04:34:00.456Z,75.44
2022-12-28T04:35:05.724Z,75.85
2022-12-28T04:36:14.710Z,75.80
2022-12-28T04:37:18.239Z,76.00
2022-12-28T04:38:21.818Z,75.96
2022-12-28T04:39:24.864Z,76.02
2022-12-28T04:40:27.980Z,75.85
2022-12-28T04:41:31.302Z,75.59
2022-12-28T04:42:34.335Z,75.82
2022-12-28T04:43:39.005Z,75.94
2022-12-28T04:44:42.094Z,75.78
2022-12-28T04:45:55.729Z,76.00
2022-12-28T04:46:59.247Z,76.03
2022-12-28T04:48:02.706Z,75.91
2022-12-28T04:49:05.794Z,76.09
2022-12-28T04:50:09.397Z,76.02
2022-12-28T04:51:22.187Z,76.27
2022-12-28T04:52:25.298Z,75.99
2022-12-28T04:53:28.334Z,76.10
2022-12-28T04:54:31.321Z,76.49
2022-12-28T04:55:35.210Z,76.17
2022-12-28T04:56:38.337Z,75.91
2022-12-28T04:57:44.114Z,75.96
2022-12-28T04:58:48.118Z,76.50
2022-12-28T04:59:51.363Z,76.69
2022-12-28T05:00:54.425Z,75.93
2022-12-28T05:01:57.598Z,75.82
2022-12-28T05:03:00.997Z,75.85
2022-12-28T05:04:05.822Z,76.29
2022-12-28T05:05:09.355Z,76.07
2022-12-28T05:06:17.760Z,76.10
2022-12-28T05:07:20.755Z,76.23
2022-12-28T05:08:24.065Z,75.96
2022-12-28T05:09:27.076Z,76.11
2022-12-28T05:10:30.259Z,76.46
2022-12-28T05:11:33.365Z,76.06
2022-12-28T05:12:36.445Z,76.06
2022-12-28T05:13:39.638Z,76.04
2022-12-28T05:14:42.982Z,76.21
2022-12-28T05:15:46.173Z,76.67
2022-12-28T05:16:52.322Z,76.34
2022-12-28T05:17:56.014Z,76.50
2022-12-28T05:18:59.236Z,76.28
2022-12-28T05:20:03.639Z,76.53
2022-12-28T05:21:10.070Z,76.93
2022-12-28T05:22:15.514Z,77.05
2022-12-28T05:23:18.656Z,76.83
2022-12-28T05:24:22.720Z,76.93
2022-12-28T05:25:25.953Z,76.94
2022-12-28T05:26:30.009Z,77.23
2022-12-28T05:27:33.190Z,76.96
2022-12-28T05:28:36.239Z,76.75
2022-12-28T05:29:39.369Z,76.77
2022-12-28T05:30:42.420Z,76.75
2022-12-28T05:31:45.794Z,77.00
2022-12-28T05:32:48.859Z,77.58
2022-12-28T05:33:52.817Z,77.25
2022-12-28T05:34:55.832Z,76.85
2022-12-28T05:36:06.828Z,76.90
2022-12-28T05:37:09.959Z,77.53
2022-12-28T05:38:13.056Z,77.34
2022-12-28T05:39:16.141Z,77.35
2022-12-28T05:40:20.352Z,77.47
2022-12-28T05:41:26.474Z,77.31
2022-12-28T05:42:29.695Z,78.03
2022-12-28T05:43:33.238Z,77.60
2022-12-28T05:44:36.275Z,78.00
2022-12-28T05:45:40.065Z,77.62
2022-12-28T05:46:43.127Z,77.41
2022-12-28T05:47:46.102Z,77.75
2022-12-28T05:48:49.076Z,77.64
2022-12-28T05:49:52.017Z,77.81
2022-12-28T05:50:59.662Z,77.82
2022-12-28T05:52:02.780Z,77.85
2022-12-28T05:53:06.000Z,77.82
2022-12-28T05:54:08.973Z,78.07
2022-12-28T05:55:11.919Z,78.11
2022-12-28T05:56:21.145Z,78.34
2022-12-28T05:57:24.358Z,78.48
2022-12-28T05:58:27.470Z,78.41
2022-12-28T05:59:30.498Z,78.39
2022-12-28T06:00:33.621Z,78.50
2022-12-28T06:01:40.283Z,78.28
2022-12-28T06:02:43.758Z,78.25
2022-12-28T06:03:51.964Z,78.45
2022-12-28T06:04:55.004Z,78.22
2022-12-28T06:06:02.261Z,78.22
2022-12-28T06:07:05.305Z,78.54
2022-12-28T06:08:08.339Z,78.33
2022-12-28T06:09:11.460Z,78.33
2022-12-28T06:10:14.410Z,78.76
2022-12-28T06:11:21.158Z,78.65
2022-12-28T06:12:24.645Z,78.72
2022-12-28T06:13:28.113Z,79.09
2022-12-28T06:14:31.571Z,78.74
2022-12-28T06:15:34.617Z,78.56
2022-12-28T06:16:40.716Z,79.02
2022-12-28T06:17:43.993Z,78.69
2022-12-28T06:18:47.390Z,78.92
2022-12-28T06:19:50.416Z,78.96
2022-12-28T06:20:57.016Z,78.95
2022-12-28T06:22:00.412Z,78.88
2022-12-28T06:23:03.751Z,78.86
2022-12-28T06:24:08.101Z,78.66
2022-12-28T06:25:11.116Z,78.69
2022-12-28T06:26:16.897Z,79.03
2022-12-28T06:27:20.230Z,78.73
2022-12-28T06:28:23.328Z,78.98
2022-12-28T06:29:27.167Z,79.22
2022-12-28T06:30:30.729Z,78.82
2022-12-28T06:31:37.373Z,78.83
2022-12-28T06:32:40.565Z,79.04
2022-12-28T06:33:47.962Z,79.08
2022-12-28T06:34:51.171Z,78.75
2022-12-28T06:35:54.926Z,78.96
2022-12-28T06:37:00.237Z,78.79
2022-12-28T06:38:03.284Z,78.87
2022-12-28T06:39:09.559Z,79.03
2022-12-28T06:40:12.998Z,78.98
2022-12-28T06:41:17.771Z,78.79
2022-12-28T06:42:20.812Z,78.93
2022-12-28T06:43:23.921Z,78.71
2022-12-28T06:44:27.037Z,78.94
2022-12-28T06:45:30.239Z,78.89
2022-12-28T06:46:33.595Z,78.57
2022-12-28T06:47:37.774Z,78.69
2022-12-28T06:48:42.168Z,78.83
2022-12-28T06:49:45.548Z,78.83
2022-12-28T06:50:59.265Z,78.72
2022-12-28T06:52:02.680Z,78.42
2022-12-28T06:53:05.782Z,78.43
2022-12-28T06:54:09.813Z,78.74
2022-12-28T06:55:13.230Z,78.54
2022-12-28T06:56:20.962Z,78.51
2022-12-28T06:57:24.239Z,78.46
2022-12-28T06:58:29.422Z,78.54
2022-12-28T06:59:32.600Z,78.93
2022-12-28T07:00:35.833Z,78.87
2022-12-28T07:01:44.911Z,78.83
2022-12-28T07:02:49.224Z,78.93
2022-12-28T07:03:55.095Z,79.18
2022-12-28T07:04:58.174Z,78.75
2022-12-28T07:06:02.590Z,78.89
2022-12-28T07:07:05.669Z,78.77
2022-12-28T07:08:12.520Z,79.02
2022-12-28T07:09:16.483Z,79.00
2022-12-28T07:10:19.742Z,78.91
2022-12-28T07:11:22.879Z,78.87
2022-12-28T07:12:26.238Z,78.72
2022-12-28T07:13:29.837Z,78.67
2022-12-28T07:14:33.203Z,79.02
2022-12-28T07:15:36.933Z,78.98
2022-12-28T07:17:42.014Z,78.90
2022-12-28T07:18:45.846Z,79.10
2022-12-28T07:19:48.870Z,79.24
2022-12-28T07:20:51.997Z,79.24
2022-12-28T07:21:55.720Z,79.01
2022-12-28T07:22:58.755Z,78.86
2022-12-28T07:24:03.523Z,78.80
2022-12-28T07:25:07.358Z,79.11
2022-12-28T07:26:16.512Z,78.79
2022-12-28T07:27:19.544Z,79.03
2022-12-28T07:28:22.923Z,79.16
2022-12-28T07:29:26.140Z,78.84
2022-12-28T07:30:29.255Z,79.07
2022-12-28T07:31:43.661Z,78.76
2022-12-28T07:32:48.482Z,79.23
2022-12-28T07:33:53.880Z,78.77
2022-12-28T07:34:56.935Z,79.15
2022-12-28T07:36:00.129Z,79.11
2022-12-28T07:37:03.236Z,78.89
2022-12-28T07:38:06.329Z,79.28
2022-12-28T07:39:10.500Z,79.23
2022-12-28T07:40:13.723Z,79.25
2022-12-28T07:41:33.004Z,79.40
2022-12-28T07:42:36.296Z,79.52
2022-12-28T07:43:39.999Z,79.12
2022-12-28T07:44:49.075Z,79.09
2022-12-28T07:46:11.080Z,79.25
2022-12-28T07:47:15.001Z,79.10
2022-12-28T07:48:18.095Z,78.82
2022-12-28T07:49:21.467Z,78.71
2022-12-28T07:50:24.570Z,78.48
2022-12-28T07:51:32.945Z,78.83
2022-12-28T07:52:37.231Z,79.10
2022-12-28T07:53:41.566Z,79.17
2022-12-28T07:54:44.878Z,79.06
2022-12-28T07:55:58.436Z,78.76
2022-12-28T07:57:01.495Z,78.54
2022-12-28T07:58:04.684Z,78.97
2022-12-28T07:59:07.761Z,79.20
2022-12-28T08:00:11.546Z,78.90
2022-12-28T08:01:19.842Z,79.02
2022-12-28T08:02:23.587Z,78.91
2022-12-28T08:03:26.909Z,78.87
2022-12-28T08:04:30.110Z,78.88
2022-12-28T08:05:33.584Z,78.74
2022-12-28T08:06:39.941Z,79.04
2022-12-28T08:07:43.117Z,78.94
2022-12-28T08:08:48.551Z,78.42
2022-12-28T08:09:51.616Z,79.16
2022-12-28T08:10:55.227Z,79.13
2022-12-28T08:11:58.424Z,79.09
2022-12-28T08:13:02.206Z,79.04
2022-12-28T08:14:06.307Z,79.11
2022-12-28T08:15:09.757Z,78.67
2022-12-28T08:16:15.787Z,79.03
2022-12-28T08:17:21.234Z,78.94
2022-12-28T08:18:24.570Z,79.19
2022-12-28T08:19:27.655Z,78.88
2022-12-28T08:20:31.197Z,78.74
2022-12-28T08:21:38.294Z,78.57
2022-12-28T08:22:41.322Z,78.64
2022-12-28T08:23:45.070Z,78.36
2022-12-28T08:24:48.110Z,78.63
2022-12-28T08:25:51.208Z,78.40
2022-12-28T08:26:54.514Z,78.71
2022-12-28T08:27:57.631Z,78.64
2022-12-28T08:29:02.577Z,78.60
2022-12-28T08:30:06.400Z,78.70
2022-12-28T08:31:12.859Z,78.54
2022-12-28T08:32:16.015Z,79.02
2022-12-28T08:33:19.044Z,78.99
2022-12-28T08:34:27.498Z,78.91
2022-12-28T08:35:30.825Z,78.86
2022-12-28T08:36:34.921Z,78.36
2022-12-28T08:37:38.226Z,79.00
2022-12-28T08:38:43.278Z,79.38
2022-12-28T08:39:46.665Z,79.02
2022-12-28T08:41:01.182Z,78.60
2022-12-28T08:42:04.173Z,78.75
2022-12-28T08:43:07.323Z,79.27
2022-12-28T08:44:10.835Z,79.29
2022-12-28T08:45:14.111Z,78.91
2022-12-28T08:46:18.629Z,78.78
2022-12-28T08:47:21.999Z,78.91
2022-12-28T08:48:26.032Z,79.00
2022-12-28T08:49:29.076Z,79.13
2022-12-28T08:50:33.248Z,79.08
2022-12-28T08:51:42.016Z,78.96
2022-12-28T08:52:45.784Z,79.23
2022-12-28T08:53:49.376Z,79.06
2022-12-28T08:54:52.469Z,78.75
2022-12-28T08:55:55.558Z,79.07
2022-12-28T08:56:58.602Z,79.00
2022-12-28T08:58:01.683Z,79.16
2022-12-28T08:59:05.999Z,79.03
2022-12-28T09:00:10.386Z,79.13
2022-12-28T09:01:19.313Z,78.87
2022-12-28T09:02:22.808Z,79.15
2022-12-28T09:03:26.072Z,79.06
2022-12-28T09:04:29.686Z,78.88
2022-12-28T09:05:39.229Z,79.17
2022-12-28T09:06:45.679Z,79.05
2022-12-28T09:07:48.856Z,79.00
2022-12-28T09:09:05.350Z,78.93
2022-12-28T09:10:10.323Z,79.81
2022-12-28T09:11:14.080Z,79.44
2022-12-28T09:12:17.564Z,79.25
2022-12-28T09:13:22.148Z,79.19
2022-12-28T09:14:25.329Z,79.31
2022-12-28T09:15:28.666Z,79.34
2022-12-28T09:16:32.540Z,79.28
2022-12-28T09:17:36.482Z,79.25
2022-12-28T09:18:45.667Z,79.25
2022-12-28T09:19:48.838Z,79.25
2022-12-28T09:20:52.780Z,79.19
2022-12-28T09:21:55.836Z,79.54
2022-12-28T09:22:59.776Z,79.29
2022-12-28T09:24:04.449Z,79.11
2022-12-28T09:25:07.904Z,79.27
2022-12-28T09:29:56.424Z,79.96
2022-12-28T09:31:05.398Z,79.11
2022-12-28T09:32:08.750Z,79.50
2022-12-28T09:33:30.821Z,79.43
2022-12-28T09:34:37.897Z,79.50
2022-12-28T09:35:42.565Z,79.43
2022-12-28T09:36:46.607Z,79.50
2022-12-28T09:37:49.727Z,79.48
2022-12-28T09:38:53.394Z,78.92
2022-12-28T09:40:01.264Z,79.29
2022-12-28T09:41:15.370Z,79.33
2022-12-28T09:42:24.526Z,79.43
2022-12-28T09:43:28.193Z,79.88
2022-12-28T09:44:51.880Z,79.66
2022-12-28T09:45:55.461Z,80.09
2022-12-28T09:47:28.184Z,79.42
2022-12-28T09:48:31.701Z,79.42
2022-12-28T09:50:02.086Z,79.52
2022-12-28T09:51:05.440Z,79.42
2022-12-28T09:52:27.509Z,79.45
2022-12-28T09:53:34.719Z,79.83
2022-12-28T09:54:39.669Z,79.63
2022-12-28T09:55:59.723Z,79.29
2022-12-28T09:57:02.917Z,79.87
2022-12-28T09:58:14.444Z,79.68
2022-12-28T09:59:23.174Z,79.32
2022-12-28T10:00:38.983Z,78.81
2022-12-28T10:01:44.051Z,78.85
2022-12-28T10:03:14.921Z,79.12
2022-12-28T10:04:20.223Z,79.11
2022-12-28T10:05:27.997Z,78.89
2022-12-28T10:06:36.938Z,78.71
2022-12-28T10:07:39.990Z,78.55
2022-12-28T10:09:09.052Z,79.25
2022-12-28T10:10:22.482Z,79.02
2022-12-28T10:11:33.548Z,78.92
2022-12-28T10:12:36.666Z,78.96
2022-12-28T10:13:56.677Z,78.67
2022-12-28T10:15:01.194Z,78.94
2022-12-28T10:16:21.674Z,78.95
2022-12-28T10:17:30.555Z,78.63
2022-12-28T10:18:39.341Z,78.36
2022-12-28T10:19:47.106Z,78.37
2022-12-28T10:20:50.650Z,78.30
2022-12-28T10:22:03.437Z,78.44
2022-12-28T10:23:07.273Z,78.20
2022-12-28T10:24:31.019Z,77.64
2022-12-28T10:25:34.967Z,78.30
2022-12-28T10:26:39.039Z,77.99
2022-12-28T10:27:43.068Z,77.65
2022-12-28T10:28:52.378Z,77.65
2022-12-28T10:29:55.540Z,77.30
2022-12-28T10:31:08.391Z,77.36
2022-12-28T10:32:14.640Z,77.45
2022-12-28T10:33:19.714Z,76.45
2022-12-28T10:34:22.866Z,76.35
2022-12-28T10:35:50.071Z,76.96
2022-12-28T10:36:55.521Z,76.97
2022-12-28T10:38:29.225Z,77.22
2022-12-28T10:39:34.213Z,77.14
2022-12-28T10:40:41.871Z,77.15
2022-12-28T10:41:45.782Z,76.83
2022-12-28T10:42:52.560Z,77.22
2022-12-28T10:44:29.393Z,77.34
2022-12-28T10:45:24.070Z,77.32
2022-12-28T10:46:27.388Z,77.19
2022-12-28T10:47:35.994Z,76.76
2022-12-28T10:48:39.873Z,76.40
2022-12-28T10:50:18.476Z,76.77
2022-12-28T10:51:17.884Z,76.19
2022-12-28T10:52:21.982Z,75.62
2022-12-28T10:54:27.573Z,76.17
2022-12-28T10:55:33.584Z,75.44
2022-12-28T10:56:48.860Z,75.55
2022-12-28T10:58:27.533Z,75.96
2022-12-28T10:59:41.213Z,76.27
2022-12-28T11:00:56.154Z,76.16
2022-12-28T11:02:34.709Z,75.56
2022-12-28T11:03:41.074Z,76.01
2022-12-28T11:05:04.181Z,75.84
2022-12-28T11:06:09.657Z,75.30
2022-12-28T11:07:45.753Z,75.77
2022-12-28T11:09:27.293Z,75.58
2022-12-28T11:10:32.447Z,75.58
2022-12-28T11:11:35.562Z,75.15
2022-12-28T11:12:43.607Z,75.30
2022-12-28T11:13:53.538Z,75.03
2022-12-28T11:14:56.683Z,75.07
2022-12-28T11:16:13.252Z,75.05
2022-12-28T11:17:20.788Z,74.60
2022-12-28T11:18:24.239Z,75.11
2022-12-28T11:19:27.302Z,74.99
2022-12-28T11:20:39.895Z,74.00
2022-12-28T11:21:44.622Z,74.87
2022-12-28T11:22:48.174Z,74.62
2022-12-28T11:23:52.924Z,74.48
2022-12-28T11:25:19.181Z,74.21
2022-12-28T11:26:24.869Z,74.36
2022-12-28T11:27:30.076Z,74.73
2022-12-28T11:28:33.118Z,74.82
2022-12-28T11:29:38.075Z,74.60
2022-12-28T11:30:41.570Z,74.71
2022-12-28T11:32:02.535Z,74.10
2022-12-28T11:33:10.080Z,73.96
2022-12-28T11:34:20.047Z,73.88
2022-12-28T11:35:27.628Z,73.71
2022-12-28T11:36:37.352Z,73.98
2022-12-28T11:37:49.702Z,74.08
2022-12-28T11:38:55.341Z,73.72
2022-12-28T11:39:59.049Z,73.45
2022-12-28T11:41:02.237Z,73.77
2022-12-28T11:43:29.311Z,73.15
2022-12-28T11:44:32.768Z,73.66
2022-12-28T11:45:54.180Z,73.38
2022-12-28T11:47:04.974Z,73.44
2022-12-28T11:48:42.496Z,73.21
2022-12-28T11:49:48.382Z,73.64
2022-12-28T11:50:54.201Z,72.62
2022-12-28T11:52:31.003Z,73.14
2022-12-28T11:53:34.049Z,72.73
2022-12-28T11:54:51.751Z,72.17
2022-12-28T11:56:16.265Z,73.09
2022-12-28T11:57:40.906Z,72.32
2022-12-28T11:58:47.719Z,72.42
2022-12-28T11:59:50.830Z,72.30
2022-12-28T12:00:53.925Z,72.15
2022-12-28T12:02:19.919Z,71.49
2022-12-28T12:03:58.695Z,73.00
2022-12-28T12:05:37.232Z,72.14
2022-12-28T12:06:45.271Z,72.28
2022-12-28T12:07:48.785Z,72.43
2022-12-28T12:08:52.450Z,72.31
2022-12-28T12:10:31.922Z,72.17
2022-12-28T12:11:40.489Z,72.48
2022-12-28T12:12:49.648Z,71.72
2022-12-28T12:13:54.670Z,71.49
2022-12-28T12:15:03.726Z,71.30
2022-12-28T12:16:19.342Z,71.77
2022-12-28T12:17:35.710Z,72.06
2022-12-28T12:19:00.824Z,71.95
2022-12-28T12:20:35.754Z,72.08
2022-12-28T12:21:45.846Z,72.40
2022-12-28T12:23:28.076Z,71.30
2022-12-28T12:24:41.550Z,71.65
2022-12-28T12:25:49.173Z,71.58
2022-12-28T12:27:12.285Z,71.55
2022-12-28T12:28:39.332Z,71.95
2022-12-28T12:29:57.134Z,72.07
2022-12-28T12:31:04.487Z,71.88
2022-12-28T12:32:15.828Z,71.97
2022-12-28T12:33:26.954Z,71.84
2022-12-28T12:35:04.962Z,71.79
2022-12-28T12:36:36.926Z,71.77
2022-12-28T12:38:29.157Z,72.20
2022-12-28T12:40:09.764Z,72.44
2022-12-28T12:41:54.824Z,72.48
2022-12-28T12:43:29.376Z,71.94
2022-12-28T12:45:03.556Z,71.82
2022-12-28T12:46:31.298Z,72.10
2022-12-28T12:48:14.182Z,72.29
2022-12-28T12:49:55.496Z,71.37
2022-12-28T12:51:22.335Z,71.23
2022-12-28T12:53:01.422Z,71.38
2022-12-28T12:54:35.224Z,71.97
2022-12-28T12:56:05.584Z,72.13
2022-12-28T12:57:30.451Z,71.45
2022-12-28T12:58:42.133Z,71.90
2022-12-28T13:00:12.699Z,71.46
2022-12-28T13:01:46.181Z,71.63
2022-12-28T13:03:14.674Z,71.92
2022-12-28T13:04:25.705Z,71.85
2022-12-28T13:05:30.540Z,71.83
2022-12-28T13:06:36.004Z,71.84
2022-12-28T13:07:40.268Z,71.61
2022-12-28T13:09:03.308Z,71.62
2022-12-28T13:10:16.107Z,71.54
2022-12-28T13:11:20.878Z,71.84
2022-12-28T13:12:25.013Z,71.46
2022-12-28T13:13:37.544Z,71.60
2022-12-28T13:14:47.434Z,71.26
2022-12-28T13:15:50.614Z,71.40
2022-12-28T13:16:56.818Z,71.15
2022-12-28T13:19:33.054Z,71.74
2022-12-28T13:20:36.164Z,71.16
2022-12-28T13:21:43.114Z,71.54
2022-12-28T13:22:48.371Z,71.33
2022-12-28T13:23:52.546Z,71.08
2022-12-28T13:24:55.628Z,71.33
2022-12-28T13:26:01.157Z,71.26
2022-12-28T13:27:18.966Z,71.54
2022-12-28T13:28:32.909Z,71.51
2022-12-28T13:29:40.028Z,71.12
2022-12-28T13:30:55.512Z,70.89
2022-12-28T13:31:58.934Z,70.96
2022-12-28T13:33:04.870Z,71.41
2022-12-28T13:34:28.028Z,71.43
2022-12-28T13:35:41.168Z,71.53
2022-12-28T13:37:00.126Z,71.27
2022-12-28T13:38:15.082Z,71.51
2022-12-28T13:39:42.360Z,71.58
2022-12-28T13:40:53.493Z,71.85
2022-12-28T13:42:03.757Z,71.61
2022-12-28T13:43:25.422Z,71.59
2022-12-28T13:44:38.431Z,71.82
2022-12-28T13:45:46.217Z,71.39
2022-12-28T13:47:24.755Z,71.22
2022-12-28T13:48:28.982Z,71.49
2022-12-28T13:49:50.879Z,71.01
2022-12-28T13:50:55.208Z,71.31
2022-12-28T13:51:58.895Z,71.18
2022-12-28T13:53:17.949Z,71.21
2022-12-28T13:54:25.079Z,71.14
2022-12-28T13:55:37.348Z,70.82
2022-12-28T13:56:44.427Z,71.02
2022-12-28T13:57:57.313Z,70.86
2022-12-28T13:59:07.772Z,71.91
2022-12-28T14:00:11.650Z,71.78
2022-12-28T14:01:22.855Z,71.34
2022-12-28T14:02:29.095Z,71.22
2022-12-28T14:03:39.386Z,71.32
2022-12-28T14:04:53.036Z,71.22
2022-12-28T14:06:00.257Z,71.24
2022-12-28T14:07:03.678Z,71.21
2022-12-28T14:08:07.267Z,71.26
2022-12-28T14:09:12.895Z,71.39
2022-12-28T14:10:16.753Z,71.35
2022-12-28T14:11:20.490Z,71.54
2022-12-28T14:12:24.932Z,71.56
2022-12-28T14:13:31.151Z,71.44
2022-12-28T14:14:34.490Z,71.63
2022-12-28T14:15:41.315Z,71.48
2022-12-28T14:16:45.727Z,71.77
2022-12-28T14:17:51.573Z,71.88
2022-12-28T14:18:54.878Z,71.77
2022-12-28T14:19:58.842Z,71.66
2022-12-28T14:21:04.110Z,71.48
2022-12-28T14:22:30.453Z,71.76
2022-12-28T14:23:36.006Z,72.04
2022-12-28T14:25:00.913Z,71.98
2022-12-28T14:26:08.447Z,71.82
2022-12-28T14:27:11.639Z,72.01
2022-12-28T14:28:25.791Z,71.97
2022-12-28T14:29:33.191Z,72.33
2022-12-28T14:30:43.347Z,71.82
2022-12-28T14:31:46.465Z,72.07
2022-12-28T14:32:49.663Z,71.97
2022-12-28T14:33:58.452Z,72.12
2022-12-28T14:35:02.435Z,72.20
2022-12-28T14:36:08.150Z,72.28
2022-12-28T14:37:35.825Z,72.50
2022-12-28T14:38:45.868Z,72.46
2022-12-28T14:39:49.742Z,72.99
2022-12-28T14:40:55.406Z,72.67
2022-12-28T14:41:59.735Z,72.21
2022-12-28T14:43:17.825Z,72.14
2022-12-28T14:44:28.199Z,72.41
2022-12-28T14:46:07.095Z,72.73
2022-12-28T14:47:43.056Z,73.06
2022-12-28T14:48:46.238Z,72.89
2022-12-28T14:49:49.242Z,72.56
2022-12-28T14:51:01.840Z,72.75
2022-12-28T14:52:07.729Z,72.83
2022-12-28T14:53:18.245Z,72.73
2022-12-28T14:54:28.806Z,72.93
2022-12-28T14:55:34.478Z,72.74
2022-12-28T14:56:38.634Z,72.85
2022-12-28T14:57:44.265Z,72.79
2022-12-28T14:58:55.497Z,72.95
2022-12-28T15:00:04.177Z,73.18
2022-12-28T15:01:09.602Z,73.27